8N0 weather

Rockingham County Heliport
Eden, North Carolina, United States

Public forecast

Using degrees Fahrenheit for public forecast. Weather courtesy of forecast.io.

METAR (pilot weather report)

Closest report is Rockingham County NC Shiloh Airport, 6.4 nm (11.8 km) WSW. Retrieved 2019/07/17 11:25 UTC (18 minutes ago):

KSIF 171125Z AUTO 23/22 A3007 RMK AO2 T02280216 PWINO

TAF (pilot weather forecast)

Closest forecast is Danville Regional Airport, 20.0 nm (37.1 km) ENE. Retrieved 2019/07/17 06:30 UTC (5 hours ago):

TAF KDAN 170528Z 1706/1806 VRB02KT P6SM BKN200 FM170800 VRB03KT P6SM SCT250 FM171300 22008KT P6SM SCT040 FM172200 22010G20KT P6SM VCTS BKN040CB FM180000 25008KT P6SM BKN060